Hlavní strana
METAR-TAF:

METAR-TAF

Letiště :

Letiště Astana

Astana, Kazachstán

zeměpisná šířka: 51-12N, zeměpisná délka: 071-27E, výška: 355 m

Aktuální stav počasí

Zpráva byla vytvořena před 31 minutami, v 09:00 UTC
vítr z různých směrů 2 kt
Teplota -7°C
Vlhkost vzduchu 93%
Tlak 1021 hPa
Viditelnost: 0200 m
mrznoucí mlha

METAR: UACC 110900Z VRB01MPS 0200 R22/0250V0400N FZFG VV002 M07/M08 Q1021 R22/92//55 NOSIG RMK QBB070 QFE735/0980

Čas: 15:31 (09:31 UTC)

Předpověď počasí

Zpráva byla vytvořena před 1 hodinou a 26 minutami, v 08:05 UTC
Předpověď platná od 11 v 08 UTC do 12 v 06 UTC
Jižní vítr 6 kt
Viditelnost: 0600 m
ve výšce 200 ft
mrznoucí mlha
Dočasný
od 11 v 08 UTC do 11 v 19 UTC
Viditelnost: 0200 m
ve výšce 100 ft
mrznoucí mlha
Dočasný
od 11 v 19 UTC do 12 v 06 UTC
Viditelnost: 0200 m
ve výšce 100 ft
mrznoucí mlha

TAF: UACC 110805Z 1108/1206 19003MPS 0600 FZFG VV002 TXM06/1109Z TNM10/1123Z TEMPO 1108/1119 0200 FZFG VV001 TEMPO 1119/1206 0200 FZFG VV001

Stav a předpovědi počasí z více než 4 000 letišť (zprávy METAR a TAF).

Červené a žluté tečky na mapě představují dostupné meteorologické stanice.

Když kurzor umístíte na tečku, zobrazí se název stanice.

Pak kliknutím zobrazíte stav a předpověď počasí.

Chcete-li změnit mapu, kliknutím na zelené tlačítko se znaménkem +mapu přiblížíte, kliknutím na zelené tlačítko se znaménkem – mapu oddálíte a kliknutím na zelené šipky přejdete na sousední mapy.


METAR-TAF: